createdAt,value
2018-10-11T00:00:27.756Z,12.10
2018-10-11T00:02:56.634Z,12.10
2018-10-11T00:05:25.411Z,12.00
2018-10-11T00:07:54.249Z,12.00
2018-10-11T00:10:23.053Z,12.00
2018-10-11T00:12:51.883Z,11.90
2018-10-11T00:15:20.682Z,11.90
2018-10-11T00:17:49.521Z,11.90
2018-10-11T00:20:18.333Z,11.90
2018-10-11T00:22:47.169Z,11.90
2018-10-11T00:25:15.905Z,11.90
2018-10-11T00:27:44.707Z,12.00
2018-10-11T00:30:13.506Z,12.00
2018-10-11T00:32:42.507Z,12.10
2018-10-11T00:35:11.304Z,12.10
2018-10-11T00:37:40.065Z,12.20
2018-10-11T00:40:09.757Z,12.20
2018-10-11T00:42:38.661Z,12.10
2018-10-11T00:45:07.583Z,12.10
2018-10-11T00:47:36.427Z,12.10
2018-10-11T00:50:05.241Z,12.10
2018-10-11T00:52:34.181Z,12.10
2018-10-11T00:55:03.007Z,12.00
2018-10-11T00:57:31.834Z,12.00
2018-10-11T01:00:00.623Z,12.00
2018-10-11T01:02:29.442Z,11.90
2018-10-11T01:04:58.296Z,11.90
2018-10-11T01:07:27.166Z,11.90
2018-10-11T01:09:55.967Z,11.90
2018-10-11T01:12:24.818Z,11.90
2018-10-11T01:14:53.624Z,11.90
2018-10-11T01:17:22.390Z,11.90
2018-10-11T01:19:51.169Z,11.80
2018-10-11T01:22:19.950Z,11.80
2018-10-11T01:24:48.723Z,11.80
2018-10-11T01:27:17.549Z,11.80
2018-10-11T01:29:46.396Z,11.70
2018-10-11T01:32:15.138Z,11.70
2018-10-11T01:34:43.949Z,11.60
2018-10-11T01:37:12.757Z,11.60
2018-10-11T01:39:41.722Z,11.60
2018-10-11T01:42:10.504Z,11.50
2018-10-11T01:44:39.395Z,11.50
2018-10-11T01:47:08.316Z,11.50
2018-10-11T01:49:37.088Z,11.50
2018-10-11T01:52:05.960Z,11.40
2018-10-11T01:54:34.769Z,11.40
2018-10-11T01:57:03.586Z,11.40
2018-10-11T01:59:32.424Z,11.40
2018-10-11T02:02:01.174Z,11.40
2018-10-11T02:04:29.954Z,11.40
2018-10-11T02:06:58.686Z,11.40
2018-10-11T02:09:27.545Z,11.40
2018-10-11T02:11:56.368Z,11.40
2018-10-11T02:14:25.118Z,11.40
2018-10-11T02:16:53.933Z,11.40
2018-10-11T02:19:22.704Z,11.40
2018-10-11T02:21:51.500Z,11.40
2018-10-11T02:24:20.275Z,11.40
2018-10-11T02:26:49.139Z,11.40
2018-10-11T02:29:17.894Z,11.30
2018-10-11T02:31:46.707Z,11.20
2018-10-11T02:34:15.516Z,11.20
2018-10-11T02:36:44.338Z,11.20
2018-10-11T02:39:13.145Z,11.10
2018-10-11T02:41:41.908Z,11.10
2018-10-11T02:44:10.715Z,11.00
2018-10-11T02:46:39.517Z,10.90
2018-10-11T02:49:08.343Z,10.90
2018-10-11T02:51:37.140Z,10.80
2018-10-11T02:54:06.139Z,10.70
2018-10-11T02:56:35.080Z,10.70
2018-10-11T02:59:17.868Z,10.60
2018-10-11T03:01:46.785Z,10.60
2018-10-11T03:04:15.675Z,10.60
2018-10-11T03:06:44.565Z,10.50
2018-10-11T03:09:13.514Z,10.50
2018-10-11T03:11:42.351Z,10.40
2018-10-11T03:14:11.192Z,10.40
2018-10-11T03:16:40.051Z,10.40
2018-10-11T03:19:08.854Z,10.50
2018-10-11T03:21:37.666Z,10.40
2018-10-11T03:24:06.584Z,10.60
2018-10-11T03:26:35.357Z,10.60
2018-10-11T03:29:04.150Z,10.50
2018-10-11T03:31:32.887Z,10.40
2018-10-11T03:34:01.739Z,10.40
2018-10-11T03:36:30.989Z,10.30
2018-10-11T03:38:59.805Z,10.30
2018-10-11T03:41:28.592Z,10.30
2018-10-11T03:43:57.397Z,10.20
2018-10-11T03:46:26.773Z,10.20
2018-10-11T03:48:55.562Z,10.20
2018-10-11T03:51:24.428Z,10.10
2018-10-11T03:53:53.174Z,10.10
2018-10-11T03:56:21.954Z,10.00
2018-10-11T03:58:50.818Z,10.00
2018-10-11T04:01:19.748Z,10.00
2018-10-11T04:03:48.665Z,10.00
2018-10-11T04:06:17.508Z,10.00
2018-10-11T04:08:46.317Z,9.90
2018-10-11T04:11:15.137Z,9.90
2018-10-11T04:13:44.211Z,9.90
2018-10-11T04:16:12.973Z,9.80
2018-10-11T04:18:41.794Z,9.80
2018-10-11T04:21:10.958Z,9.90
2018-10-11T04:23:39.929Z,10.00
2018-10-11T04:26:08.700Z,10.00
2018-10-11T04:28:37.447Z,10.10
2018-10-11T04:31:06.277Z,10.00
2018-10-11T04:33:35.121Z,10.00
2018-10-11T04:36:04.060Z,10.00
2018-10-11T04:38:32.852Z,9.90
2018-10-11T04:41:01.711Z,9.90
2018-10-11T04:43:30.537Z,9.80
2018-10-11T04:45:59.332Z,9.80
2018-10-11T04:48:28.177Z,9.70
2018-10-11T04:50:57.297Z,9.70
2018-10-11T04:53:26.062Z,9.70
2018-10-11T04:55:54.959Z,9.90
2018-10-11T04:58:24.096Z,10.00
2018-10-11T05:00:52.827Z,10.10
2018-10-11T05:03:21.653Z,10.10
2018-10-11T05:05:50.436Z,10.00
2018-10-11T05:08:19.170Z,9.90
2018-10-11T05:10:48.024Z,9.80
2018-10-11T05:13:17.236Z,9.70
2018-10-11T05:15:46.281Z,9.60
2018-10-11T05:18:17.966Z,9.60
2018-10-11T05:20:46.821Z,9.50
2018-10-11T05:23:15.673Z,9.50
2018-10-11T05:25:44.509Z,9.40
2018-10-11T05:28:13.367Z,9.40
2018-10-11T05:30:44.716Z,9.40
2018-10-11T05:33:14.472Z,9.30
2018-10-11T05:35:43.333Z,9.30
2018-10-11T05:38:12.156Z,9.20
2018-10-11T05:40:41.438Z,9.20
2018-10-11T05:43:10.858Z,9.20
2018-10-11T05:45:40.382Z,9.30
2018-10-11T05:48:09.265Z,9.30
2018-10-11T05:50:38.245Z,9.30
2018-10-11T05:53:07.268Z,9.30
2018-10-11T05:55:36.155Z,9.30
2018-10-11T05:58:05.086Z,9.20
2018-10-11T06:00:33.879Z,9.20
2018-10-11T06:03:03.822Z,9.10
2018-10-11T06:05:32.811Z,9.10
2018-10-11T06:08:02.580Z,9.10
2018-10-11T06:10:34.561Z,9.10
2018-10-11T06:13:04.874Z,9.20
2018-10-11T06:15:33.708Z,9.20
2018-10-11T06:18:02.579Z,9.30
2018-10-11T06:20:31.459Z,9.40
2018-10-11T06:23:00.358Z,9.40
2018-10-11T06:25:29.116Z,9.50
2018-10-11T06:27:58.048Z,9.60
2018-10-11T06:30:27.031Z,9.60
2018-10-11T06:32:55.921Z,9.70
2018-10-11T06:35:24.862Z,9.80
2018-10-11T06:37:54.154Z,9.90
2018-10-11T06:40:23.025Z,10.00
2018-10-11T06:42:52.292Z,10.00
2018-10-11T06:45:21.232Z,10.10
2018-10-11T06:47:51.985Z,10.30
2018-10-11T06:50:20.922Z,10.50
2018-10-11T06:52:49.819Z,10.70
2018-10-11T06:55:18.587Z,10.80
2018-10-11T06:57:47.398Z,10.90
2018-10-11T07:00:16.207Z,11.10
2018-10-11T07:02:44.987Z,11.30
2018-10-11T07:05:13.747Z,11.40
2018-10-11T07:07:42.538Z,11.50
2018-10-11T07:10:11.334Z,11.70
2018-10-11T07:12:40.232Z,11.80
2018-10-11T07:15:09.035Z,11.90
2018-10-11T07:17:37.805Z,12.00
2018-10-11T07:20:06.661Z,12.10
2018-10-11T07:22:35.622Z,12.20
2018-10-11T07:25:04.467Z,12.30
2018-10-11T07:27:33.290Z,12.40
2018-10-11T07:30:02.082Z,12.50
2018-10-11T07:32:30.836Z,12.60
2018-10-11T07:34:59.676Z,12.70
2018-10-11T07:37:28.474Z,12.90
2018-10-11T07:39:57.213Z,13.10
2018-10-11T07:42:26.014Z,13.30
2018-10-11T07:44:54.808Z,13.50
2018-10-11T07:47:23.662Z,13.60
2018-10-11T07:49:52.460Z,13.80
2018-10-11T07:52:21.253Z,14.00
2018-10-11T07:54:50.007Z,14.10
2018-10-11T07:57:18.784Z,14.30
2018-10-11T07:59:47.641Z,14.50
2018-10-11T08:02:16.397Z,14.70
2018-10-11T08:04:45.223Z,14.90
2018-10-11T08:07:14.080Z,15.20
2018-10-11T08:09:42.836Z,15.40
2018-10-11T08:12:11.642Z,15.80
2018-10-11T08:14:40.447Z,16.00
2018-10-11T08:17:09.569Z,16.20
2018-10-11T08:19:38.033Z,16.50
2018-10-11T08:22:06.918Z,16.70
2018-10-11T08:24:35.754Z,16.80
2018-10-11T08:27:04.603Z,16.90
2018-10-11T08:29:33.409Z,17.20
2018-10-11T08:32:02.308Z,17.30
2018-10-11T08:34:31.039Z,17.40
2018-10-11T08:36:59.814Z,17.50
2018-10-11T08:39:28.644Z,17.70
2018-10-11T08:41:57.417Z,17.80
2018-10-11T08:44:26.200Z,17.90
2018-10-11T08:46:55.019Z,18.00
2018-10-11T08:49:23.793Z,18.10
2018-10-11T08:51:52.583Z,18.20
2018-10-11T08:54:26.445Z,18.30
2018-10-11T08:56:55.294Z,18.40
2018-10-11T08:59:24.084Z,18.50
2018-10-11T09:01:52.873Z,18.60
2018-10-11T09:04:21.661Z,18.70
2018-10-11T09:06:50.447Z,18.90
2018-10-11T09:09:19.219Z,18.90
2018-10-11T09:11:47.977Z,19.00
2018-10-11T09:14:16.825Z,19.10
2018-10-11T09:16:45.597Z,19.20
2018-10-11T09:19:14.430Z,19.40
2018-10-11T09:21:43.211Z,19.50
2018-10-11T09:24:12.006Z,19.60
2018-10-11T09:26:40.811Z,19.60
2018-10-11T09:29:09.650Z,19.70
2018-10-11T09:31:38.406Z,19.90
2018-10-11T09:34:07.279Z,19.90
2018-10-11T09:36:36.200Z,20.00
2018-10-11T09:39:07.189Z,20.00
2018-10-11T09:41:36.068Z,20.10
2018-10-11T09:44:04.926Z,20.20
2018-10-11T09:46:33.729Z,20.30
2018-10-11T09:49:02.545Z,20.30
2018-10-11T09:51:31.331Z,20.40
2018-10-11T09:54:00.069Z,20.60
2018-10-11T09:57:35.543Z,20.70
2018-10-11T10:00:09.285Z,20.90
2018-10-11T10:02:38.159Z,20.90
2018-10-11T10:05:06.919Z,21.10
2018-10-11T10:07:35.688Z,21.20
2018-10-11T10:10:04.858Z,21.30
2018-10-11T10:12:33.721Z,21.50
2018-10-11T10:15:02.685Z,21.70
2018-10-11T10:17:31.434Z,21.80
2018-10-11T10:20:00.246Z,21.90
2018-10-11T10:22:29.061Z,22.00
2018-10-11T10:24:57.990Z,22.10
2018-10-11T10:27:26.848Z,22.20
2018-10-11T10:29:55.657Z,22.20
2018-10-11T10:32:24.438Z,22.20
2018-10-11T10:34:53.198Z,22.30
2018-10-11T10:37:22.067Z,22.40
2018-10-11T10:39:50.944Z,22.30
2018-10-11T10:42:19.662Z,22.30
2018-10-11T10:44:48.454Z,22.40
2018-10-11T10:47:17.270Z,22.50
2018-10-11T10:49:46.056Z,22.70
2018-10-11T10:52:14.790Z,22.80
2018-10-11T10:54:43.518Z,22.80
2018-10-11T10:57:12.302Z,22.80
2018-10-11T10:59:41.059Z,22.90
2018-10-11T11:02:09.915Z,22.90
2018-10-11T11:04:38.677Z,23.00
2018-10-11T11:07:07.501Z,22.90
2018-10-11T11:09:36.269Z,23.10
2018-10-11T11:12:05.075Z,23.10
2018-10-11T11:14:33.889Z,23.20
2018-10-11T11:17:02.671Z,23.30
2018-10-11T11:19:31.445Z,23.40
2018-10-11T11:22:00.224Z,23.60
2018-10-11T11:24:28.942Z,23.60
2018-10-11T11:26:57.745Z,23.60
2018-10-11T11:29:26.527Z,23.70
2018-10-11T11:31:55.285Z,23.90
2018-10-11T11:34:24.069Z,24.00
2018-10-11T11:36:52.828Z,24.10
2018-10-11T11:39:21.622Z,24.30
2018-10-11T11:41:50.421Z,24.30
2018-10-11T11:44:19.211Z,24.50
2018-10-11T11:46:48.021Z,24.60
2018-10-11T11:49:16.867Z,24.70
2018-10-11T11:51:45.677Z,24.80
2018-10-11T11:54:18.769Z,24.90
2018-10-11T11:56:47.701Z,25.00
2018-10-11T11:59:16.503Z,24.80
2018-10-11T12:01:45.320Z,25.00
2018-10-11T12:04:14.094Z,25.10
2018-10-11T12:06:42.946Z,25.10
2018-10-11T12:09:13.152Z,25.10
2018-10-11T12:11:42.116Z,25.40
2018-10-11T12:14:10.875Z,25.10
2018-10-11T12:16:39.879Z,25.30
2018-10-11T12:19:10.159Z,25.20
2018-10-11T12:21:39.067Z,25.20
2018-10-11T12:24:07.862Z,25.20
2018-10-11T12:26:36.687Z,25.40
2018-10-11T12:29:05.524Z,25.50
2018-10-11T12:31:34.287Z,25.20
2018-10-11T12:34:03.083Z,25.20
2018-10-11T12:36:32.040Z,25.30
2018-10-11T12:39:00.852Z,25.60
2018-10-11T12:41:29.607Z,25.70
2018-10-11T12:43:58.405Z,25.90
2018-10-11T12:46:27.218Z,25.60
2018-10-11T12:48:55.961Z,25.40
2018-10-11T12:51:24.729Z,25.30
2018-10-11T12:53:53.495Z,25.40
2018-10-11T12:56:22.315Z,25.50
2018-10-11T12:58:51.065Z,25.70
2018-10-11T13:01:22.089Z,25.90
2018-10-11T13:03:48.743Z,26.10
2018-10-11T13:06:17.550Z,26.10
2018-10-11T13:08:46.296Z,26.30
2018-10-11T13:11:15.095Z,26.20
2018-10-11T13:13:47.861Z,26.30
2018-10-11T13:16:12.637Z,26.50
2018-10-11T13:18:41.416Z,26.60
2018-10-11T13:21:10.270Z,26.60
2018-10-11T13:23:39.042Z,26.60
2018-10-11T13:26:07.834Z,26.40
2018-10-11T13:28:36.721Z,26.60
2018-10-11T13:31:05.469Z,26.80
2018-10-11T13:33:34.248Z,27.20
2018-10-11T13:36:03.007Z,27.50
2018-10-11T13:38:31.753Z,27.50
2018-10-11T13:41:03.081Z,28.00
2018-10-11T13:43:29.338Z,28.30
2018-10-11T13:46:01.201Z,28.70
2018-10-11T13:48:26.943Z,29.10
2018-10-11T13:50:55.744Z,29.30
2018-10-11T13:53:24.798Z,29.30
2018-10-11T13:55:56.670Z,29.50
2018-10-11T13:58:22.179Z,29.00
2018-10-11T14:00:50.952Z,28.50
2018-10-11T14:03:19.740Z,28.60
2018-10-11T14:05:48.518Z,29.10
2018-10-11T14:08:17.281Z,29.60
2018-10-11T14:10:47.227Z,30.10
2018-10-11T14:13:18.826Z,30.70
2018-10-11T14:15:44.805Z,31.30
2018-10-11T14:18:14.123Z,31.60
2018-10-11T14:20:42.923Z,31.50
2018-10-11T14:23:11.791Z,31.10
2018-10-11T14:25:40.562Z,31.20
2018-10-11T14:28:09.342Z,31.30
2018-10-11T14:30:38.234Z,31.40
2018-10-11T14:33:07.045Z,31.30
2018-10-11T14:35:35.859Z,31.50
2018-10-11T14:38:04.691Z,31.60
2018-10-11T14:40:33.549Z,31.60
2018-10-11T14:43:02.815Z,31.50
2018-10-11T14:45:31.900Z,31.90
2018-10-11T14:48:00.669Z,32.10
2018-10-11T14:50:29.751Z,31.90
2018-10-11T14:52:58.693Z,31.80
2018-10-11T14:55:27.618Z,31.90
2018-10-11T14:57:56.482Z,31.70
2018-10-11T15:00:25.259Z,31.70
2018-10-11T15:02:54.144Z,31.90
2018-10-11T15:05:23.477Z,31.70
2018-10-11T15:07:52.228Z,31.60
2018-10-11T15:10:21.191Z,31.50
2018-10-11T15:12:50.271Z,31.60
2018-10-11T15:15:20.003Z,31.60
2018-10-11T15:17:48.864Z,31.40
2018-10-11T15:20:17.647Z,31.40
2018-10-11T15:22:46.511Z,31.00
2018-10-11T15:25:15.238Z,31.10
2018-10-11T15:27:44.081Z,31.10
2018-10-11T15:30:12.858Z,30.80
2018-10-11T15:32:41.638Z,30.60
2018-10-11T15:35:10.472Z,30.30
2018-10-11T15:37:39.301Z,29.80
2018-10-11T15:40:08.184Z,29.40
2018-10-11T15:42:36.979Z,29.30
2018-10-11T15:45:06.967Z,29.20
2018-10-11T15:47:35.809Z,29.00
2018-10-11T15:50:04.647Z,29.00
2018-10-11T15:52:33.538Z,28.90
2018-10-11T15:55:02.332Z,28.80
2018-10-11T15:57:31.115Z,28.70
2018-10-11T15:59:59.929Z,28.60
2018-10-11T16:02:28.721Z,28.40
2018-10-11T16:04:57.541Z,28.20
2018-10-11T16:07:26.352Z,27.70
2018-10-11T16:09:55.186Z,27.00
2018-10-11T16:12:23.919Z,26.20
2018-10-11T16:14:52.673Z,25.40
2018-10-11T16:17:21.449Z,24.70
2018-10-11T16:19:50.353Z,24.10
2018-10-11T16:22:19.490Z,23.60
2018-10-11T16:24:50.644Z,23.10
2018-10-11T16:27:19.506Z,22.70
2018-10-11T16:29:48.449Z,22.30
2018-10-11T16:32:17.348Z,22.10
2018-10-11T16:34:46.074Z,21.80
2018-10-11T16:37:14.892Z,21.60
2018-10-11T16:39:43.708Z,21.40
2018-10-11T16:42:12.476Z,21.30
2018-10-11T16:44:41.248Z,21.10
2018-10-11T16:47:10.098Z,20.90
2018-10-11T16:49:38.982Z,20.80
2018-10-11T16:52:07.695Z,20.60
2018-10-11T16:54:39.937Z,20.40
2018-10-11T16:57:08.762Z,20.30
2018-10-11T16:59:37.598Z,20.00
2018-10-11T17:02:06.517Z,19.90
2018-10-11T17:04:35.385Z,19.70
2018-10-11T17:07:04.162Z,19.60
2018-10-11T17:09:32.932Z,19.30
2018-10-11T17:12:01.773Z,19.20
2018-10-11T17:14:30.649Z,19.00
2018-10-11T17:16:59.457Z,18.90
2018-10-11T17:19:28.409Z,18.70
2018-10-11T17:21:58.112Z,18.60
2018-10-11T17:24:27.370Z,18.40
2018-10-11T17:26:56.336Z,18.30
2018-10-11T17:29:25.289Z,18.20
2018-10-11T17:31:54.217Z,18.10
2018-10-11T17:34:23.004Z,18.00
2018-10-11T17:36:51.826Z,17.90
2018-10-11T17:39:20.700Z,17.80
2018-10-11T17:41:49.530Z,17.70
2018-10-11T17:44:19.459Z,17.60
2018-10-11T17:46:48.289Z,17.50
2018-10-11T17:49:17.150Z,17.40
2018-10-11T17:51:46.020Z,17.40
2018-10-11T17:54:15.037Z,17.30
2018-10-11T17:56:43.960Z,17.20
2018-10-11T17:59:12.703Z,17.10
2018-10-11T18:04:19.690Z,16.90
2018-10-11T18:06:48.788Z,16.80
2018-10-11T18:09:18.059Z,16.70
2018-10-11T18:11:50.492Z,16.60
2018-10-11T18:14:19.546Z,16.60
2018-10-11T18:16:50.733Z,16.50
2018-10-11T18:22:12.172Z,16.40
2018-10-11T18:24:41.643Z,16.40
2018-10-11T18:27:10.707Z,16.40
2018-10-11T18:29:39.795Z,16.30
2018-10-11T18:32:08.852Z,16.30
2018-10-11T18:34:38.086Z,16.20
2018-10-11T18:37:06.605Z,16.10
2018-10-11T18:39:35.836Z,16.10
2018-10-11T18:42:04.628Z,16.10
2018-10-11T18:44:33.789Z,16.10
2018-10-11T18:47:02.037Z,16.10
2018-10-11T18:49:30.833Z,16.00
2018-10-11T18:51:58.893Z,16.00
2018-10-11T18:54:27.087Z,15.90
2018-10-11T18:56:56.632Z,15.80
2018-10-11T18:59:27.047Z,15.80
2018-10-11T19:01:57.294Z,15.70
2018-10-11T19:04:26.453Z,15.60
2018-10-11T19:06:54.554Z,15.60
2018-10-11T19:09:22.763Z,15.60
2018-10-11T19:11:50.768Z,15.60
2018-10-11T19:14:18.906Z,15.50
2018-10-11T19:16:48.202Z,15.50
2018-10-11T19:19:19.424Z,15.40
2018-10-11T19:21:47.511Z,15.40
2018-10-11T19:24:19.993Z,15.40
2018-10-11T19:26:48.099Z,15.30
2018-10-11T19:29:16.477Z,15.30
2018-10-11T19:31:45.804Z,15.20
2018-10-11T19:34:15.871Z,15.10
2018-10-11T19:36:45.391Z,15.00
2018-10-11T19:39:20.525Z,14.90
2018-10-11T19:41:49.419Z,14.90
2018-10-11T19:44:18.579Z,14.80
2018-10-11T19:46:47.542Z,14.80
2018-10-11T19:49:16.804Z,14.70
2018-10-11T19:51:46.180Z,14.70
2018-10-11T19:54:16.497Z,14.70
2018-10-11T19:56:45.427Z,14.70
2018-10-11T19:59:14.437Z,14.70
2018-10-11T20:01:43.411Z,14.70
2018-10-11T20:04:12.461Z,14.70
2018-10-11T20:06:41.327Z,14.70
2018-10-11T20:09:10.497Z,14.60
2018-10-11T20:11:39.376Z,14.70
2018-10-11T20:14:09.345Z,14.60
2018-10-11T20:16:38.248Z,14.60
2018-10-11T20:19:08.359Z,14.60
2018-10-11T20:21:37.236Z,14.60
2018-10-11T20:24:14.132Z,14.60
2018-10-11T20:26:43.019Z,14.60
2018-10-11T20:29:12.064Z,14.60
2018-10-11T20:31:40.923Z,14.60
2018-10-11T20:34:10.897Z,14.70
2018-10-11T20:36:39.765Z,14.70
2018-10-11T20:39:16.912Z,14.80
2018-10-11T20:41:45.803Z,14.80
2018-10-11T20:44:15.827Z,14.80
2018-10-11T20:46:44.738Z,14.80
2018-10-11T20:49:14.773Z,14.70
2018-10-11T20:51:43.621Z,14.70
2018-10-11T20:54:13.735Z,14.70
2018-10-11T20:56:42.727Z,14.70
2018-10-11T20:59:25.150Z,14.70
2018-10-11T21:01:55.647Z,14.70
2018-10-11T21:04:24.689Z,14.70
2018-10-11T21:06:53.570Z,14.70
2018-10-11T21:09:29.430Z,14.70
2018-10-11T21:11:58.341Z,14.70
2018-10-11T21:14:27.464Z,14.70
2018-10-11T21:16:56.353Z,14.70
2018-10-11T21:19:44.362Z,14.80
2018-10-11T21:22:13.329Z,14.80
2018-10-11T21:24:48.090Z,14.80
2018-10-11T21:27:16.915Z,14.80
2018-10-11T21:29:45.889Z,14.80
2018-10-11T21:32:14.771Z,14.80
2018-10-11T21:34:45.072Z,14.80
2018-10-11T21:37:13.971Z,14.90
2018-10-11T21:39:43.046Z,14.90
2018-10-11T21:42:11.941Z,15.10
2018-10-11T21:44:40.979Z,15.20
2018-10-11T21:47:09.866Z,15.30
2018-10-11T21:49:38.930Z,15.40
2018-10-11T21:52:08.032Z,15.50
2018-10-11T21:54:37.084Z,15.50
2018-10-11T21:57:06.029Z,15.60
2018-10-11T21:59:35.087Z,15.60
2018-10-11T22:02:04.015Z,15.60
2018-10-11T22:04:33.076Z,15.50
2018-10-11T22:07:02.014Z,15.50
2018-10-11T22:09:32.038Z,15.40
2018-10-11T22:12:00.986Z,15.30
2018-10-11T22:14:36.896Z,15.20
2018-10-11T22:17:05.752Z,15.10
2018-10-11T22:19:35.115Z,15.00
2018-10-11T22:22:04.109Z,14.90
2018-10-11T22:24:38.448Z,14.80
2018-10-11T22:27:07.822Z,14.70
2018-10-11T22:29:40.595Z,14.60
2018-10-11T22:32:09.614Z,14.50
2018-10-11T22:34:39.593Z,14.40
2018-10-11T22:37:08.800Z,14.40
2018-10-11T22:39:37.770Z,14.30
2018-10-11T22:42:06.758Z,14.30
2018-10-11T22:44:35.820Z,14.20
2018-10-11T22:47:04.697Z,14.20
2018-10-11T22:49:43.904Z,14.20
2018-10-11T22:52:12.759Z,14.20
2018-10-11T22:54:48.277Z,14.10
2018-10-11T22:57:17.126Z,14.10
2018-10-11T22:59:47.215Z,14.10
2018-10-11T23:02:16.165Z,14.00
2018-10-11T23:04:51.530Z,14.00
2018-10-11T23:07:20.458Z,13.90
2018-10-11T23:09:53.613Z,13.90
2018-10-11T23:12:22.527Z,13.80
2018-10-11T23:14:51.668Z,13.80
2018-10-11T23:17:20.522Z,13.70
2018-10-11T23:19:51.497Z,13.70
2018-10-11T23:22:20.394Z,13.60
2018-10-11T23:24:55.919Z,13.60
2018-10-11T23:27:24.897Z,13.60
2018-10-11T23:29:54.979Z,13.60
2018-10-11T23:32:23.860Z,13.50
2018-10-11T23:34:52.988Z,13.50
2018-10-11T23:37:21.902Z,13.40
2018-10-11T23:39:55.064Z,13.40
2018-10-11T23:42:24.299Z,13.40
2018-10-11T23:44:57.020Z,13.40
2018-10-11T23:47:25.884Z,13.30
2018-10-11T23:49:55.878Z,13.30
2018-10-11T23:52:24.843Z,13.30
2018-10-11T23:54:53.812Z,13.20
2018-10-11T23:57:22.713Z,13.20
2018-10-11T23:59:51.750Z,13.20
